sensor_id;sensor_type;location;lat;lon;timestamp;P1;durP1;ratioP1;P2;durP2;ratioP2
33926;SDS011;20485;50.992;5.550;2023-05-07T00:02:21;8.07;;;3.45;;
33926;SDS011;20485;50.992;5.550;2023-05-07T00:04:47;7.13;;;3.20;;
33926;SDS011;20485;50.992;5.550;2023-05-07T00:07:14;9.27;;;2.67;;
33926;SDS011;20485;50.992;5.550;2023-05-07T00:09:40;5.75;;;2.70;;
33926;SDS011;20485;50.992;5.550;2023-05-07T00:12:05;10.82;;;2.90;;
33926;SDS011;20485;50.992;5.550;2023-05-07T00:14:31;5.50;;;3.03;;
33926;SDS011;20485;50.992;5.550;2023-05-07T00:16:57;6.95;;;3.15;;
33926;SDS011;20485;50.992;5.550;2023-05-07T00:19:22;4.72;;;3.00;;
33926;SDS011;20485;50.992;5.550;2023-05-07T00:21:48;6.57;;;3.20;;
33926;SDS011;20485;50.992;5.550;2023-05-07T00:24:14;6.43;;;3.13;;
33926;SDS011;20485;50.992;5.550;2023-05-07T00:26:39;6.18;;;2.83;;
33926;SDS011;20485;50.992;5.550;2023-05-07T00:29:05;6.53;;;3.22;;
33926;SDS011;20485;50.992;5.550;2023-05-07T00:31:31;6.53;;;3.42;;
33926;SDS011;20485;50.992;5.550;2023-05-07T00:33:56;6.60;;;3.00;;
33926;SDS011;20485;50.992;5.550;2023-05-07T00:36:22;5.15;;;2.72;;
33926;SDS011;20485;50.992;5.550;2023-05-07T00:38:48;8.50;;;3.15;;
33926;SDS011;20485;50.992;5.550;2023-05-07T00:41:14;6.63;;;3.53;;
33926;SDS011;20485;50.992;5.550;2023-05-07T00:43:40;5.90;;;3.75;;
33926;SDS011;20485;50.992;5.550;2023-05-07T00:46:06;6.45;;;3.65;;
33926;SDS011;20485;50.992;5.550;2023-05-07T00:48:31;10.23;;;3.63;;
33926;SDS011;20485;50.992;5.550;2023-05-07T00:50:57;7.25;;;4.15;;
33926;SDS011;20485;50.992;5.550;2023-05-07T00:53:23;6.28;;;3.45;;
33926;SDS011;20485;50.992;5.550;2023-05-07T00:55:49;6.32;;;3.65;;
33926;SDS011;20485;50.992;5.550;2023-05-07T00:58:16;5.47;;;3.55;;
33926;SDS011;20485;50.992;5.550;2023-05-07T01:00:42;12.65;;;4.07;;
33926;SDS011;20485;50.992;5.550;2023-05-07T01:03:07;10.27;;;3.53;;
33926;SDS011;20485;50.992;5.550;2023-05-07T01:05:33;6.88;;;3.67;;
33926;SDS011;20485;50.992;5.550;2023-05-07T01:07:59;5.82;;;3.30;;
33926;SDS011;20485;50.992;5.550;2023-05-07T01:10:27;5.63;;;3.67;;
33926;SDS011;20485;50.992;5.550;2023-05-07T01:12:55;8.30;;;3.50;;
33926;SDS011;20485;50.992;5.550;2023-05-07T01:15:22;7.75;;;3.80;;
33926;SDS011;20485;50.992;5.550;2023-05-07T01:17:48;7.65;;;3.88;;
33926;SDS011;20485;50.992;5.550;2023-05-07T01:20:14;5.82;;;3.90;;
33926;SDS011;20485;50.992;5.550;2023-05-07T01:22:40;6.35;;;3.75;;
33926;SDS011;20485;50.992;5.550;2023-05-07T01:25:08;6.45;;;4.22;;
33926;SDS011;20485;50.992;5.550;2023-05-07T01:27:34;9.13;;;3.80;;
33926;SDS011;20485;50.992;5.550;2023-05-07T01:30:02;9.43;;;4.40;;
33926;SDS011;20485;50.992;5.550;2023-05-07T01:32:38;7.20;;;3.97;;
33926;SDS011;20485;50.992;5.550;2023-05-07T01:35:18;5.85;;;3.47;;
33926;SDS011;20485;50.992;5.550;2023-05-07T01:37:46;11.20;;;4.35;;
33926;SDS011;20485;50.992;5.550;2023-05-07T01:40:13;15.35;;;5.50;;
33926;SDS011;20485;50.992;5.550;2023-05-07T01:42:39;9.05;;;4.85;;
33926;SDS011;20485;50.992;5.550;2023-05-07T01:45:07;8.93;;;4.07;;
33926;SDS011;20485;50.992;5.550;2023-05-07T01:47:33;10.13;;;4.38;;
33926;SDS011;20485;50.992;5.550;2023-05-07T01:50:00;7.57;;;3.65;;
33926;SDS011;20485;50.992;5.550;2023-05-07T01:52:27;6.93;;;4.10;;
33926;SDS011;20485;50.992;5.550;2023-05-07T01:54:53;13.20;;;5.40;;
33926;SDS011;20485;50.992;5.550;2023-05-07T01:57:18;14.32;;;4.88;;
33926;SDS011;20485;50.992;5.550;2023-05-07T01:59:44;11.52;;;4.65;;
33926;SDS011;20485;50.992;5.550;2023-05-07T02:02:10;12.27;;;4.60;;
33926;SDS011;20485;50.992;5.550;2023-05-07T02:04:35;13.18;;;4.90;;
33926;SDS011;20485;50.992;5.550;2023-05-07T02:07:01;13.70;;;4.47;;
33926;SDS011;20485;50.992;5.550;2023-05-07T02:09:27;9.93;;;4.80;;
33926;SDS011;20485;50.992;5.550;2023-05-07T02:11:53;9.68;;;4.38;;
33926;SDS011;20485;50.992;5.550;2023-05-07T02:14:18;7.32;;;4.30;;
33926;SDS011;20485;50.992;5.550;2023-05-07T02:16:45;8.70;;;4.47;;
33926;SDS011;20485;50.992;5.550;2023-05-07T02:19:10;6.97;;;4.00;;
33926;SDS011;20485;50.992;5.550;2023-05-07T02:21:36;8.90;;;4.47;;
33926;SDS011;20485;50.992;5.550;2023-05-07T02:24:02;9.15;;;4.80;;
33926;SDS011;20485;50.992;5.550;2023-05-07T02:26:28;8.05;;;4.63;;
33926;SDS011;20485;50.992;5.550;2023-05-07T02:28:53;9.80;;;4.70;;
33926;SDS011;20485;50.992;5.550;2023-05-07T02:31:19;11.73;;;5.22;;
33926;SDS011;20485;50.992;5.550;2023-05-07T02:33:44;11.60;;;5.97;;
33926;SDS011;20485;50.992;5.550;2023-05-07T02:36:10;9.98;;;5.57;;
33926;SDS011;20485;50.992;5.550;2023-05-07T02:38:37;11.93;;;5.53;;
33926;SDS011;20485;50.992;5.550;2023-05-07T02:41:02;9.65;;;5.60;;
33926;SDS011;20485;50.992;5.550;2023-05-07T02:43:28;9.73;;;5.28;;
33926;SDS011;20485;50.992;5.550;2023-05-07T02:46:04;8.82;;;4.93;;
33926;SDS011;20485;50.992;5.550;2023-05-07T02:48:30;8.45;;;4.63;;
33926;SDS011;20485;50.992;5.550;2023-05-07T02:50:57;9.27;;;4.85;;
33926;SDS011;20485;50.992;5.550;2023-05-07T02:53:23;10.40;;;4.72;;
33926;SDS011;20485;50.992;5.550;2023-05-07T02:55:51;7.63;;;4.60;;
33926;SDS011;20485;50.992;5.550;2023-05-07T02:58:23;7.53;;;4.45;;
33926;SDS011;20485;50.992;5.550;2023-05-07T03:00:49;8.93;;;5.07;;
33926;SDS011;20485;50.992;5.550;2023-05-07T03:03:15;9.32;;;5.88;;
33926;SDS011;20485;50.992;5.550;2023-05-07T03:05:41;9.93;;;5.93;;
33926;SDS011;20485;50.992;5.550;2023-05-07T03:08:08;10.27;;;5.38;;
33926;SDS011;20485;50.992;5.550;2023-05-07T03:10:34;9.02;;;5.47;;
33926;SDS011;20485;50.992;5.550;2023-05-07T03:13:00;7.80;;;4.72;;
33926;SDS011;20485;50.992;5.550;2023-05-07T03:15:26;11.48;;;5.65;;
33926;SDS011;20485;50.992;5.550;2023-05-07T03:17:52;8.77;;;5.38;;
33926;SDS011;20485;50.992;5.550;2023-05-07T03:20:17;10.70;;;5.18;;
33926;SDS011;20485;50.992;5.550;2023-05-07T03:22:43;8.35;;;5.07;;
33926;SDS011;20485;50.992;5.550;2023-05-07T03:25:09;13.15;;;5.13;;
33926;SDS011;20485;50.992;5.550;2023-05-07T03:27:35;7.50;;;4.60;;
33926;SDS011;20485;50.992;5.550;2023-05-07T03:30:01;12.65;;;6.53;;
33926;SDS011;20485;50.992;5.550;2023-05-07T03:32:26;15.40;;;5.85;;
33926;SDS011;20485;50.992;5.550;2023-05-07T03:34:52;11.90;;;5.63;;
33926;SDS011;20485;50.992;5.550;2023-05-07T03:37:18;9.13;;;5.90;;
33926;SDS011;20485;50.992;5.550;2023-05-07T03:39:44;9.15;;;5.97;;
33926;SDS011;20485;50.992;5.550;2023-05-07T03:42:09;12.88;;;6.25;;
33926;SDS011;20485;50.992;5.550;2023-05-07T03:44:35;12.82;;;6.32;;
33926;SDS011;20485;50.992;5.550;2023-05-07T03:47:01;10.75;;;6.05;;
33926;SDS011;20485;50.992;5.550;2023-05-07T03:49:27;16.23;;;6.50;;
33926;SDS011;20485;50.992;5.550;2023-05-07T03:51:53;8.73;;;5.68;;
33926;SDS011;20485;50.992;5.550;2023-05-07T03:54:19;12.07;;;6.30;;
33926;SDS011;20485;50.992;5.550;2023-05-07T03:56:45;15.52;;;6.18;;
33926;SDS011;20485;50.992;5.550;2023-05-07T03:59:10;10.90;;;5.88;;
33926;SDS011;20485;50.992;5.550;2023-05-07T04:01:37;11.57;;;6.13;;
33926;SDS011;20485;50.992;5.550;2023-05-07T04:04:02;11.65;;;6.40;;
33926;SDS011;20485;50.992;5.550;2023-05-07T04:06:29;16.45;;;7.05;;
33926;SDS011;20485;50.992;5.550;2023-05-07T04:08:55;8.18;;;5.43;;
33926;SDS011;20485;50.992;5.550;2023-05-07T04:11:21;11.38;;;6.82;;
33926;SDS011;20485;50.992;5.550;2023-05-07T04:13:47;12.40;;;6.53;;
33926;SDS011;20485;50.992;5.550;2023-05-07T04:16:12;10.38;;;5.72;;
33926;SDS011;20485;50.992;5.550;2023-05-07T04:18:38;10.40;;;6.30;;
33926;SDS011;20485;50.992;5.550;2023-05-07T04:21:04;9.90;;;5.95;;
33926;SDS011;20485;50.992;5.550;2023-05-07T04:23:30;7.80;;;4.80;;
33926;SDS011;20485;50.992;5.550;2023-05-07T04:25:56;11.73;;;6.05;;
33926;SDS011;20485;50.992;5.550;2023-05-07T04:28:22;9.45;;;5.80;;
33926;SDS011;20485;50.992;5.550;2023-05-07T04:30:48;11.13;;;5.55;;
33926;SDS011;20485;50.992;5.550;2023-05-07T04:33:14;9.30;;;4.75;;
33926;SDS011;20485;50.992;5.550;2023-05-07T04:35:42;10.05;;;6.40;;
33926;SDS011;20485;50.992;5.550;2023-05-07T04:38:07;13.38;;;6.32;;
33926;SDS011;20485;50.992;5.550;2023-05-07T04:40:35;14.00;;;6.45;;
33926;SDS011;20485;50.992;5.550;2023-05-07T04:43:01;8.85;;;5.10;;
33926;SDS011;20485;50.992;5.550;2023-05-07T04:45:27;9.77;;;5.72;;
33926;SDS011;20485;50.992;5.550;2023-05-07T04:47:52;13.23;;;5.78;;
33926;SDS011;20485;50.992;5.550;2023-05-07T04:50:18;11.07;;;5.35;;
33926;SDS011;20485;50.992;5.550;2023-05-07T04:52:44;9.07;;;5.78;;
33926;SDS011;20485;50.992;5.550;2023-05-07T04:55:10;8.45;;;5.35;;
33926;SDS011;20485;50.992;5.550;2023-05-07T04:57:36;7.70;;;4.85;;
33926;SDS011;20485;50.992;5.550;2023-05-07T05:00:04;9.00;;;4.80;;
33926;SDS011;20485;50.992;5.550;2023-05-07T05:02:30;10.32;;;5.10;;
33926;SDS011;20485;50.992;5.550;2023-05-07T05:04:56;11.52;;;4.57;;
33926;SDS011;20485;50.992;5.550;2023-05-07T05:07:22;8.52;;;4.20;;
33926;SDS011;20485;50.992;5.550;2023-05-07T05:09:47;12.82;;;4.95;;
33926;SDS011;20485;50.992;5.550;2023-05-07T05:12:13;9.57;;;5.07;;
33926;SDS011;20485;50.992;5.550;2023-05-07T05:14:39;8.82;;;4.45;;
33926;SDS011;20485;50.992;5.550;2023-05-07T05:17:04;11.13;;;4.60;;
33926;SDS011;20485;50.992;5.550;2023-05-07T05:19:30;9.65;;;4.82;;
33926;SDS011;20485;50.992;5.550;2023-05-07T05:21:55;7.05;;;4.22;;
33926;SDS011;20485;50.992;5.550;2023-05-07T05:24:21;6.75;;;4.60;;
33926;SDS011;20485;50.992;5.550;2023-05-07T05:26:47;5.72;;;3.50;;
33926;SDS011;20485;50.992;5.550;2023-05-07T05:29:12;8.80;;;4.25;;
33926;SDS011;20485;50.992;5.550;2023-05-07T05:31:38;6.95;;;4.40;;
33926;SDS011;20485;50.992;5.550;2023-05-07T05:34:04;5.70;;;3.83;;
33926;SDS011;20485;50.992;5.550;2023-05-07T05:36:29;5.68;;;3.80;;
33926;SDS011;20485;50.992;5.550;2023-05-07T05:38:55;8.07;;;3.92;;
33926;SDS011;20485;50.992;5.550;2023-05-07T05:41:21;9.82;;;5.22;;
33926;SDS011;20485;50.992;5.550;2023-05-07T05:43:46;8.98;;;5.38;;
33926;SDS011;20485;50.992;5.550;2023-05-07T05:46:13;9.88;;;5.30;;
33926;SDS011;20485;50.992;5.550;2023-05-07T05:48:39;10.98;;;4.55;;
33926;SDS011;20485;50.992;5.550;2023-05-07T05:51:05;8.73;;;4.47;;
33926;SDS011;20485;50.992;5.550;2023-05-07T05:53:30;10.75;;;5.60;;
33926;SDS011;20485;50.992;5.550;2023-05-07T05:55:56;10.52;;;5.22;;
33926;SDS011;20485;50.992;5.550;2023-05-07T05:58:22;9.52;;;5.82;;
33926;SDS011;20485;50.992;5.550;2023-05-07T06:00:47;8.80;;;5.22;;
33926;SDS011;20485;50.992;5.550;2023-05-07T06:03:13;10.05;;;5.55;;
33926;SDS011;20485;50.992;5.550;2023-05-07T06:05:39;9.02;;;4.53;;
33926;SDS011;20485;50.992;5.550;2023-05-07T06:08:04;7.68;;;4.50;;
33926;SDS011;20485;50.992;5.550;2023-05-07T06:10:30;10.57;;;5.10;;
33926;SDS011;20485;50.992;5.550;2023-05-07T06:12:56;10.05;;;4.03;;
33926;SDS011;20485;50.992;5.550;2023-05-07T06:15:22;7.05;;;3.97;;
33926;SDS011;20485;50.992;5.550;2023-05-07T06:17:47;6.88;;;3.95;;
33926;SDS011;20485;50.992;5.550;2023-05-07T06:20:14;6.65;;;3.70;;
33926;SDS011;20485;50.992;5.550;2023-05-07T06:22:39;5.43;;;3.55;;
33926;SDS011;20485;50.992;5.550;2023-05-07T06:25:05;8.43;;;4.13;;
33926;SDS011;20485;50.992;5.550;2023-05-07T06:27:31;10.30;;;4.38;;
33926;SDS011;20485;50.992;5.550;2023-05-07T06:29:57;5.45;;;4.00;;
33926;SDS011;20485;50.992;5.550;2023-05-07T06:32:22;11.10;;;4.25;;
33926;SDS011;20485;50.992;5.550;2023-05-07T06:34:48;11.68;;;4.10;;
33926;SDS011;20485;50.992;5.550;2023-05-07T06:37:14;7.72;;;3.28;;
33926;SDS011;20485;50.992;5.550;2023-05-07T06:39:40;7.75;;;3.53;;
33926;SDS011;20485;50.992;5.550;2023-05-07T06:42:05;6.85;;;3.40;;
33926;SDS011;20485;50.992;5.550;2023-05-07T06:44:31;6.25;;;3.20;;
33926;SDS011;20485;50.992;5.550;2023-05-07T06:46:57;7.78;;;3.78;;
33926;SDS011;20485;50.992;5.550;2023-05-07T06:49:22;10.68;;;3.40;;
33926;SDS011;20485;50.992;5.550;2023-05-07T06:51:48;6.07;;;3.28;;
33926;SDS011;20485;50.992;5.550;2023-05-07T06:54:14;7.57;;;3.22;;
33926;SDS011;20485;50.992;5.550;2023-05-07T06:56:39;7.28;;;2.83;;
33926;SDS011;20485;50.992;5.550;2023-05-07T06:59:05;6.57;;;2.85;;
33926;SDS011;20485;50.992;5.550;2023-05-07T07:01:31;5.40;;;2.35;;
33926;SDS011;20485;50.992;5.550;2023-05-07T07:03:57;5.05;;;2.83;;
33926;SDS011;20485;50.992;5.550;2023-05-07T07:06:23;5.60;;;2.42;;
33926;SDS011;20485;50.992;5.550;2023-05-07T07:08:48;6.80;;;2.55;;
33926;SDS011;20485;50.992;5.550;2023-05-07T07:11:14;5.68;;;2.30;;
33926;SDS011;20485;50.992;5.550;2023-05-07T07:13:40;4.55;;;2.90;;
33926;SDS011;20485;50.992;5.550;2023-05-07T07:16:07;3.15;;;2.20;;
33926;SDS011;20485;50.992;5.550;2023-05-07T07:18:33;4.53;;;2.30;;
33926;SDS011;20485;50.992;5.550;2023-05-07T07:20:59;3.65;;;2.55;;
33926;SDS011;20485;50.992;5.550;2023-05-07T07:23:24;4.45;;;2.67;;
33926;SDS011;20485;50.992;5.550;2023-05-07T07:25:50;4.53;;;2.40;;
33926;SDS011;20485;50.992;5.550;2023-05-07T07:28:16;6.25;;;2.92;;
33926;SDS011;20485;50.992;5.550;2023-05-07T07:30:42;9.93;;;2.63;;
33926;SDS011;20485;50.992;5.550;2023-05-07T07:33:08;7.00;;;2.60;;
33926;SDS011;20485;50.992;5.550;2023-05-07T07:35:33;7.60;;;2.88;;
33926;SDS011;20485;50.992;5.550;2023-05-07T07:38:00;6.75;;;2.40;;
33926;SDS011;20485;50.992;5.550;2023-05-07T07:40:26;5.78;;;2.47;;
33926;SDS011;20485;50.992;5.550;2023-05-07T07:42:52;4.78;;;2.30;;
33926;SDS011;20485;50.992;5.550;2023-05-07T07:45:18;12.70;;;3.08;;
33926;SDS011;20485;50.992;5.550;2023-05-07T07:47:44;7.55;;;2.40;;
33926;SDS011;20485;50.992;5.550;2023-05-07T07:50:10;4.70;;;2.50;;
33926;SDS011;20485;50.992;5.550;2023-05-07T07:52:36;6.38;;;2.70;;
33926;SDS011;20485;50.992;5.550;2023-05-07T07:55:01;8.93;;;2.65;;
33926;SDS011;20485;50.992;5.550;2023-05-07T07:57:28;4.25;;;2.38;;
33926;SDS011;20485;50.992;5.550;2023-05-07T07:59:54;5.18;;;2.70;;
33926;SDS011;20485;50.992;5.550;2023-05-07T08:02:19;14.02;;;2.85;;
33926;SDS011;20485;50.992;5.550;2023-05-07T08:04:45;4.85;;;2.20;;
33926;SDS011;20485;50.992;5.550;2023-05-07T08:07:11;6.07;;;2.42;;
33926;SDS011;20485;50.992;5.550;2023-05-07T08:09:37;6.63;;;2.53;;
33926;SDS011;20485;50.992;5.550;2023-05-07T08:12:03;5.32;;;2.28;;
33926;SDS011;20485;50.992;5.550;2023-05-07T08:14:30;8.98;;;2.40;;
33926;SDS011;20485;50.992;5.550;2023-05-07T08:16:56;4.80;;;2.22;;
33926;SDS011;20485;50.992;5.550;2023-05-07T08:19:21;3.80;;;2.20;;
33926;SDS011;20485;50.992;5.550;2023-05-07T08:21:47;8.02;;;2.15;;
33926;SDS011;20485;50.992;5.550;2023-05-07T08:24:15;5.20;;;2.17;;
33926;SDS011;20485;50.992;5.550;2023-05-07T08:26:41;7.07;;;2.15;;
33926;SDS011;20485;50.992;5.550;2023-05-07T08:29:07;6.00;;;2.30;;
33926;SDS011;20485;50.992;5.550;2023-05-07T08:31:33;7.28;;;2.45;;
33926;SDS011;20485;50.992;5.550;2023-05-07T08:33:58;5.22;;;2.53;;
33926;SDS011;20485;50.992;5.550;2023-05-07T08:36:25;7.60;;;2.25;;
33926;SDS011;20485;50.992;5.550;2023-05-07T08:38:50;5.25;;;2.30;;
33926;SDS011;20485;50.992;5.550;2023-05-07T08:41:16;4.78;;;2.25;;
33926;SDS011;20485;50.992;5.550;2023-05-07T08:43:42;7.28;;;2.30;;
33926;SDS011;20485;50.992;5.550;2023-05-07T08:46:18;7.13;;;2.25;;
33926;SDS011;20485;50.992;5.550;2023-05-07T08:48:45;9.48;;;2.17;;
33926;SDS011;20485;50.992;5.550;2023-05-07T08:51:15;10.02;;;2.58;;
33926;SDS011;20485;50.992;5.550;2023-05-07T08:53:43;10.30;;;2.83;;
33926;SDS011;20485;50.992;5.550;2023-05-07T08:56:09;6.78;;;1.95;;
33926;SDS011;20485;50.992;5.550;2023-05-07T08:58:35;10.95;;;2.45;;
33926;SDS011;20485;50.992;5.550;2023-05-07T09:01:02;6.20;;;1.85;;
33926;SDS011;20485;50.992;5.550;2023-05-07T09:03:32;5.38;;;1.77;;
33926;SDS011;20485;50.992;5.550;2023-05-07T09:05:58;7.05;;;2.33;;
33926;SDS011;20485;50.992;5.550;2023-05-07T09:08:24;4.95;;;1.52;;
33926;SDS011;20485;50.992;5.550;2023-05-07T09:10:51;6.13;;;1.95;;
33926;SDS011;20485;50.992;5.550;2023-05-07T09:13:17;7.00;;;2.20;;
33926;SDS011;20485;50.992;5.550;2023-05-07T09:15:43;7.85;;;2.03;;
33926;SDS011;20485;50.992;5.550;2023-05-07T09:18:08;4.32;;;2.33;;
33926;SDS011;20485;50.992;5.550;2023-05-07T09:20:36;6.50;;;2.33;;
33926;SDS011;20485;50.992;5.550;2023-05-07T09:23:02;5.18;;;2.17;;
33926;SDS011;20485;50.992;5.550;2023-05-07T09:25:31;6.72;;;2.05;;
33926;SDS011;20485;50.992;5.550;2023-05-07T09:27:58;6.60;;;2.55;;
33926;SDS011;20485;50.992;5.550;2023-05-07T09:30:28;7.13;;;2.38;;
33926;SDS011;20485;50.992;5.550;2023-05-07T09:32:55;6.10;;;2.20;;
33926;SDS011;20485;50.992;5.550;2023-05-07T09:35:21;7.68;;;2.63;;
33926;SDS011;20485;50.992;5.550;2023-05-07T09:37:49;7.88;;;2.72;;
33926;SDS011;20485;50.992;5.550;2023-05-07T09:40:21;6.20;;;2.53;;
33926;SDS011;20485;50.992;5.550;2023-05-07T09:42:48;7.28;;;2.45;;
33926;SDS011;20485;50.992;5.550;2023-05-07T09:45:14;5.72;;;2.05;;
33926;SDS011;20485;50.992;5.550;2023-05-07T09:47:54;4.00;;;1.70;;
33926;SDS011;20485;50.992;5.550;2023-05-07T09:51:09;6.65;;;2.25;;
33926;SDS011;20485;50.992;5.550;2023-05-07T09:53:14;5.40;;;1.92;;
33926;SDS011;20485;50.992;5.550;2023-05-07T09:55:41;4.82;;;1.83;;
33926;SDS011;20485;50.992;5.550;2023-05-07T09:58:07;5.78;;;1.90;;
33926;SDS011;20485;50.992;5.550;2023-05-07T10:00:34;5.05;;;1.50;;
33926;SDS011;20485;50.992;5.550;2023-05-07T10:03:04;7.57;;;2.03;;
33926;SDS011;20485;50.992;5.550;2023-05-07T10:05:45;3.70;;;1.80;;
33926;SDS011;20485;50.992;5.550;2023-05-07T10:08:12;5.18;;;1.70;;
33926;SDS011;20485;50.992;5.550;2023-05-07T10:10:41;8.50;;;2.47;;
33926;SDS011;20485;50.992;5.550;2023-05-07T10:13:07;6.85;;;2.08;;
33926;SDS011;20485;50.992;5.550;2023-05-07T10:15:35;5.38;;;1.60;;
33926;SDS011;20485;50.992;5.550;2023-05-07T10:18:03;4.15;;;1.58;;
33926;SDS011;20485;50.992;5.550;2023-05-07T10:20:29;6.65;;;2.00;;
33926;SDS011;20485;50.992;5.550;2023-05-07T10:22:56;5.25;;;1.83;;
33926;SDS011;20485;50.992;5.550;2023-05-07T10:25:28;5.38;;;1.60;;
33926;SDS011;20485;50.992;5.550;2023-05-07T10:27:55;3.67;;;1.48;;
33926;SDS011;20485;50.992;5.550;2023-05-07T10:33:13;4.13;;;1.60;;
33926;SDS011;20485;50.992;5.550;2023-05-07T10:35:46;3.03;;;1.05;;
33926;SDS011;20485;50.992;5.550;2023-05-07T10:38:13;5.00;;;1.58;;
33926;SDS011;20485;50.992;5.550;2023-05-07T10:40:38;4.93;;;1.77;;
33926;SDS011;20485;50.992;5.550;2023-05-07T10:43:05;4.68;;;2.30;;
33926;SDS011;20485;50.992;5.550;2023-05-07T10:45:31;10.05;;;3.25;;
33926;SDS011;20485;50.992;5.550;2023-05-07T10:48:10;9.32;;;3.17;;
33926;SDS011;20485;50.992;5.550;2023-05-07T10:50:40;12.75;;;4.82;;
33926;SDS011;20485;50.992;5.550;2023-05-07T10:55:46;7.07;;;3.55;;
33926;SDS011;20485;50.992;5.550;2023-05-07T11:00:56;11.10;;;4.28;;
33926;SDS011;20485;50.992;5.550;2023-05-07T11:03:27;10.77;;;4.32;;
33926;SDS011;20485;50.992;5.550;2023-05-07T11:11:42;10.65;;;4.28;;
33926;SDS011;20485;50.992;5.550;2023-05-07T11:14:13;9.65;;;4.32;;
33926;SDS011;20485;50.992;5.550;2023-05-07T11:16:40;10.65;;;4.70;;
33926;SDS011;20485;50.992;5.550;2023-05-07T11:19:08;8.38;;;5.00;;
33926;SDS011;20485;50.992;5.550;2023-05-07T11:21:34;7.88;;;3.97;;
33926;SDS011;20485;50.992;5.550;2023-05-07T11:24:01;17.02;;;4.90;;
33926;SDS011;20485;50.992;5.550;2023-05-07T11:26:29;14.88;;;5.10;;
33926;SDS011;20485;50.992;5.550;2023-05-07T11:28:56;12.13;;;5.28;;
33926;SDS011;20485;50.992;5.550;2023-05-07T11:31:25;14.63;;;5.70;;
33926;SDS011;20485;50.992;5.550;2023-05-07T11:33:53;11.95;;;4.93;;
33926;SDS011;20485;50.992;5.550;2023-05-07T11:36:20;12.10;;;5.13;;
33926;SDS011;20485;50.992;5.550;2023-05-07T11:38:47;13.13;;;4.70;;
33926;SDS011;20485;50.992;5.550;2023-05-07T11:41:13;12.60;;;4.63;;
33926;SDS011;20485;50.992;5.550;2023-05-07T11:43:52;15.43;;;4.93;;
33926;SDS011;20485;50.992;5.550;2023-05-07T11:46:20;10.80;;;4.43;;
33926;SDS011;20485;50.992;5.550;2023-05-07T11:48:46;10.85;;;5.30;;
33926;SDS011;20485;50.992;5.550;2023-05-07T11:51:11;13.27;;;4.68;;
33926;SDS011;20485;50.992;5.550;2023-05-07T11:53:39;9.82;;;4.78;;
33926;SDS011;20485;50.992;5.550;2023-05-07T11:56:12;16.58;;;4.78;;
33926;SDS011;20485;50.992;5.550;2023-05-07T11:58:40;11.45;;;4.32;;
33926;SDS011;20485;50.992;5.550;2023-05-07T12:01:07;12.38;;;3.95;;
33926;SDS011;20485;50.992;5.550;2023-05-07T12:03:34;11.07;;;3.47;;
33926;SDS011;20485;50.992;5.550;2023-05-07T12:06:07;10.10;;;2.75;;
33926;SDS011;20485;50.992;5.550;2023-05-07T12:08:35;8.20;;;2.55;;
33926;SDS011;20485;50.992;5.550;2023-05-07T12:11:03;8.05;;;2.25;;
33926;SDS011;20485;50.992;5.550;2023-05-07T12:13:32;7.18;;;2.88;;
33926;SDS011;20485;50.992;5.550;2023-05-07T12:15:58;10.77;;;3.92;;
33926;SDS011;20485;50.992;5.550;2023-05-07T12:18:24;11.80;;;3.30;;
33926;SDS011;20485;50.992;5.550;2023-05-07T12:20:50;8.90;;;3.17;;
33926;SDS011;20485;50.992;5.550;2023-05-07T12:23:16;9.82;;;2.33;;
33926;SDS011;20485;50.992;5.550;2023-05-07T12:25:43;8.00;;;2.83;;
33926;SDS011;20485;50.992;5.550;2023-05-07T12:28:15;12.10;;;2.85;;
33926;SDS011;20485;50.992;5.550;2023-05-07T12:30:42;8.55;;;2.47;;
33926;SDS011;20485;50.992;5.550;2023-05-07T12:33:09;13.52;;;3.30;;
33926;SDS011;20485;50.992;5.550;2023-05-07T12:35:36;7.03;;;2.70;;
33926;SDS011;20485;50.992;5.550;2023-05-07T12:38:06;6.97;;;2.42;;
33926;SDS011;20485;50.992;5.550;2023-05-07T12:40:43;8.25;;;2.88;;
33926;SDS011;20485;50.992;5.550;2023-05-07T12:43:20;8.75;;;2.67;;
33926;SDS011;20485;50.992;5.550;2023-05-07T12:45:49;9.68;;;2.28;;
33926;SDS011;20485;50.992;5.550;2023-05-07T12:48:16;6.85;;;2.25;;
33926;SDS011;20485;50.992;5.550;2023-05-07T12:50:42;8.70;;;2.38;;
33926;SDS011;20485;50.992;5.550;2023-05-07T12:53:09;10.38;;;2.42;;
33926;SDS011;20485;50.992;5.550;2023-05-07T12:55:40;10.23;;;2.58;;
33926;SDS011;20485;50.992;5.550;2023-05-07T12:58:07;6.57;;;2.20;;
33926;SDS011;20485;50.992;5.550;2023-05-07T13:00:34;10.35;;;3.13;;
33926;SDS011;20485;50.992;5.550;2023-05-07T13:03:03;9.35;;;3.30;;
33926;SDS011;20485;50.992;5.550;2023-05-07T13:05:30;11.30;;;2.80;;
33926;SDS011;20485;50.992;5.550;2023-05-07T13:07:56;9.68;;;2.10;;
33926;SDS011;20485;50.992;5.550;2023-05-07T13:10:23;9.93;;;2.50;;
33926;SDS011;20485;50.992;5.550;2023-05-07T13:12:49;10.80;;;2.90;;
33926;SDS011;20485;50.992;5.550;2023-05-07T13:15:15;10.23;;;3.35;;
33926;SDS011;20485;50.992;5.550;2023-05-07T13:17:41;10.25;;;2.80;;
33926;SDS011;20485;50.992;5.550;2023-05-07T13:20:08;8.23;;;3.38;;
33926;SDS011;20485;50.992;5.550;2023-05-07T13:22:35;8.75;;;3.20;;
33926;SDS011;20485;50.992;5.550;2023-05-07T13:25:01;8.10;;;2.47;;
33926;SDS011;20485;50.992;5.550;2023-05-07T13:27:26;9.10;;;2.30;;
33926;SDS011;20485;50.992;5.550;2023-05-07T13:29:52;7.68;;;2.40;;
33926;SDS011;20485;50.992;5.550;2023-05-07T13:32:18;7.90;;;2.25;;
33926;SDS011;20485;50.992;5.550;2023-05-07T13:34:43;7.38;;;2.10;;
33926;SDS011;20485;50.992;5.550;2023-05-07T13:37:09;8.63;;;1.90;;
33926;SDS011;20485;50.992;5.550;2023-05-07T13:39:35;5.97;;;1.98;;
33926;SDS011;20485;50.992;5.550;2023-05-07T13:42:01;9.40;;;2.88;;
33926;SDS011;20485;50.992;5.550;2023-05-07T13:44:27;6.40;;;1.92;;
33926;SDS011;20485;50.992;5.550;2023-05-07T13:46:52;5.45;;;1.98;;
33926;SDS011;20485;50.992;5.550;2023-05-07T13:49:18;9.27;;;2.67;;
33926;SDS011;20485;50.992;5.550;2023-05-07T13:51:44;8.80;;;2.60;;
33926;SDS011;20485;50.992;5.550;2023-05-07T13:54:10;6.85;;;2.47;;
33926;SDS011;20485;50.992;5.550;2023-05-07T13:56:36;8.63;;;2.50;;
33926;SDS011;20485;50.992;5.550;2023-05-07T13:59:02;9.07;;;3.05;;
33926;SDS011;20485;50.992;5.550;2023-05-07T14:01:28;6.95;;;2.45;;
33926;SDS011;20485;50.992;5.550;2023-05-07T14:03:53;5.38;;;2.03;;
33926;SDS011;20485;50.992;5.550;2023-05-07T14:06:20;5.72;;;2.38;;
33926;SDS011;20485;50.992;5.550;2023-05-07T14:08:46;7.93;;;2.47;;
33926;SDS011;20485;50.992;5.550;2023-05-07T14:11:12;11.70;;;2.83;;
33926;SDS011;20485;50.992;5.550;2023-05-07T14:13:38;7.13;;;2.40;;
33926;SDS011;20485;50.992;5.550;2023-05-07T14:16:03;6.28;;;2.55;;
33926;SDS011;20485;50.992;5.550;2023-05-07T14:18:29;4.72;;;2.15;;
33926;SDS011;20485;50.992;5.550;2023-05-07T14:20:56;5.22;;;2.20;;
33926;SDS011;20485;50.992;5.550;2023-05-07T14:23:21;7.38;;;2.10;;
33926;SDS011;20485;50.992;5.550;2023-05-07T14:25:51;6.75;;;2.05;;
33926;SDS011;20485;50.992;5.550;2023-05-07T14:28:18;5.70;;;2.00;;
33926;SDS011;20485;50.992;5.550;2023-05-07T14:30:46;7.05;;;2.10;;
33926;SDS011;20485;50.992;5.550;2023-05-07T14:33:12;5.95;;;1.88;;
33926;SDS011;20485;50.992;5.550;2023-05-07T14:35:38;6.53;;;2.22;;
33926;SDS011;20485;50.992;5.550;2023-05-07T14:38:03;7.50;;;2.05;;
33926;SDS011;20485;50.992;5.550;2023-05-07T14:40:29;5.45;;;1.80;;
33926;SDS011;20485;50.992;5.550;2023-05-07T14:42:55;8.65;;;2.03;;
33926;SDS011;20485;50.992;5.550;2023-05-07T14:45:22;5.18;;;1.98;;
33926;SDS011;20485;50.992;5.550;2023-05-07T14:47:48;5.28;;;1.75;;
33926;SDS011;20485;50.992;5.550;2023-05-07T14:50:13;5.22;;;1.60;;
33926;SDS011;20485;50.992;5.550;2023-05-07T14:52:39;4.10;;;1.63;;
33926;SDS011;20485;50.992;5.550;2023-05-07T14:55:05;7.63;;;1.90;;